Mount Princeton, Colorado
Current Conditions -  °F | °C
As of 9:13 AM on Wednesday 22 Oct 2014 (Local Time) from K7BM Reporting Station
Scattered Clouds Scattered Clouds  
Wind Chill: 43°   Ceiling: Unl
Heat Index: 43°   Visibility: 10mi
Dew Point: 36°   Wind: 3mph
Humidity: 76%   Direction: 240°WSW
Pressure: 30.31"   Gusts: 16mph
Location:  38.7194°N, 106.276°W
Report Text: K7BM 221513Z AUTO 24003G14KT 10SM SCT031 SCT037 SCT046 06/02 A3031 RMK AO2
Loading
Personal Weather Stations






























Interactive Weather Map New forecast layout! Learn more

10-Day Weather Forecast

Advertisements
Track Severe Weather on mobile